sensor_id;sensor_type;location;lat;lon;timestamp;P1;durP1;ratioP1;P2;durP2;ratioP2
78774;SDS011;68119;43.398;3.676;2024-03-23T00:55:43;21.27;;;11.55;;
78774;SDS011;68119;43.398;3.676;2024-03-23T01:00:39;20.48;;;11.70;;
78774;SDS011;68119;43.398;3.676;2024-03-23T01:03:05;23.15;;;12.70;;
78774;SDS011;68119;43.398;3.676;2024-03-23T01:05:37;24.80;;;12.43;;
78774;SDS011;68119;43.398;3.676;2024-03-23T01:10:57;24.45;;;13.07;;
78774;SDS011;68119;43.398;3.676;2024-03-23T01:13:32;22.35;;;13.13;;
78774;SDS011;68119;43.398;3.676;2024-03-23T01:15:58;21.52;;;12.82;;
78774;SDS011;68119;43.398;3.676;2024-03-23T01:18:26;24.65;;;12.93;;
78774;SDS011;68119;43.398;3.676;2024-03-23T01:20:55;22.80;;;13.20;;
78774;SDS011;68119;43.398;3.676;2024-03-23T01:23:26;27.92;;;13.50;;
78774;SDS011;68119;43.398;3.676;2024-03-23T01:28:31;22.55;;;12.50;;
78774;SDS011;68119;43.398;3.676;2024-03-23T01:31:03;28.75;;;13.05;;
78774;SDS011;68119;43.398;3.676;2024-03-23T01:33:29;20.20;;;12.55;;
78774;SDS011;68119;43.398;3.676;2024-03-23T01:35:57;23.40;;;12.55;;
78774;SDS011;68119;43.398;3.676;2024-03-23T01:38:34;24.00;;;13.60;;
78774;SDS011;68119;43.398;3.676;2024-03-23T01:41:04;29.13;;;13.60;;
78774;SDS011;68119;43.398;3.676;2024-03-23T01:43:41;24.92;;;13.63;;
78774;SDS011;68119;43.398;3.676;2024-03-23T01:46:12;26.85;;;13.70;;
78774;SDS011;68119;43.398;3.676;2024-03-23T01:48:42;23.05;;;12.23;;
78774;SDS011;68119;43.398;3.676;2024-03-23T01:51:11;22.35;;;13.15;;
78774;SDS011;68119;43.398;3.676;2024-03-23T01:53:44;26.90;;;12.13;;
78774;SDS011;68119;43.398;3.676;2024-03-23T01:56:10;25.33;;;14.25;;
78774;SDS011;68119;43.398;3.676;2024-03-23T01:58:37;21.80;;;12.43;;
78774;SDS011;68119;43.398;3.676;2024-03-23T02:01:03;25.92;;;13.38;;
78774;SDS011;68119;43.398;3.676;2024-03-23T02:03:31;27.33;;;15.02;;
78774;SDS011;68119;43.398;3.676;2024-03-23T02:05:57;31.48;;;15.48;;
78774;SDS011;68119;43.398;3.676;2024-03-23T02:08:25;28.05;;;15.98;;
78774;SDS011;68119;43.398;3.676;2024-03-23T02:10:54;27.92;;;16.35;;
78774;SDS011;68119;43.398;3.676;2024-03-23T02:13:20;27.65;;;16.48;;
78774;SDS011;68119;43.398;3.676;2024-03-23T02:15:52;30.92;;;17.20;;
78774;SDS011;68119;43.398;3.676;2024-03-23T02:18:20;28.05;;;15.93;;
78774;SDS011;68119;43.398;3.676;2024-03-23T02:20:52;27.50;;;17.27;;
78774;SDS011;68119;43.398;3.676;2024-03-23T02:23:24;29.60;;;18.77;;
78774;SDS011;68119;43.398;3.676;2024-03-23T02:25:50;31.40;;;18.13;;
78774;SDS011;68119;43.398;3.676;2024-03-23T02:28:16;32.90;;;19.33;;
78774;SDS011;68119;43.398;3.676;2024-03-23T02:31:02;29.65;;;18.30;;
78774;SDS011;68119;43.398;3.676;2024-03-23T02:33:29;34.80;;;17.92;;
78774;SDS011;68119;43.398;3.676;2024-03-23T02:35:59;30.23;;;18.02;;
78774;SDS011;68119;43.398;3.676;2024-03-23T02:38:34;29.23;;;17.60;;
78774;SDS011;68119;43.398;3.676;2024-03-23T02:41:03;27.85;;;17.15;;
78774;SDS011;68119;43.398;3.676;2024-03-23T02:43:32;26.60;;;17.60;;
78774;SDS011;68119;43.398;3.676;2024-03-23T02:46:01;30.35;;;17.95;;
78774;SDS011;68119;43.398;3.676;2024-03-23T02:48:32;28.27;;;18.58;;
78774;SDS011;68119;43.398;3.676;2024-03-23T02:51:01;30.23;;;17.35;;
78774;SDS011;68119;43.398;3.676;2024-03-23T02:53:49;30.83;;;17.98;;
78774;SDS011;68119;43.398;3.676;2024-03-23T02:56:18;31.23;;;18.00;;
78774;SDS011;68119;43.398;3.676;2024-03-23T02:58:47;27.52;;;16.70;;
78774;SDS011;68119;43.398;3.676;2024-03-23T03:01:18;27.08;;;17.33;;
78774;SDS011;68119;43.398;3.676;2024-03-23T03:03:47;32.15;;;18.33;;
78774;SDS011;68119;43.398;3.676;2024-03-23T03:06:22;29.27;;;18.90;;
78774;SDS011;68119;43.398;3.676;2024-03-23T03:08:51;33.70;;;17.35;;
78774;SDS011;68119;43.398;3.676;2024-03-23T03:11:17;27.45;;;17.42;;
78774;SDS011;68119;43.398;3.676;2024-03-23T03:13:52;28.50;;;17.10;;
78774;SDS011;68119;43.398;3.676;2024-03-23T03:16:21;25.15;;;17.50;;
78774;SDS011;68119;43.398;3.676;2024-03-23T03:21:36;29.25;;;16.38;;
78774;SDS011;68119;43.398;3.676;2024-03-23T03:24:07;27.50;;;17.42;;
78774;SDS011;68119;43.398;3.676;2024-03-23T03:26:33;25.08;;;15.98;;
78774;SDS011;68119;43.398;3.676;2024-03-23T03:29:02;32.22;;;17.98;;
78774;SDS011;68119;43.398;3.676;2024-03-23T03:31:31;27.23;;;16.75;;
78774;SDS011;68119;43.398;3.676;2024-03-23T03:33:57;30.10;;;18.08;;
78774;SDS011;68119;43.398;3.676;2024-03-23T03:36:26;38.15;;;17.77;;
78774;SDS011;68119;43.398;3.676;2024-03-23T03:41:56;29.95;;;18.52;;
78774;SDS011;68119;43.398;3.676;2024-03-23T03:44:25;30.40;;;18.35;;
78774;SDS011;68119;43.398;3.676;2024-03-23T03:47:06;32.40;;;19.02;;
78774;SDS011;68119;43.398;3.676;2024-03-23T03:49:35;33.15;;;19.27;;
78774;SDS011;68119;43.398;3.676;2024-03-23T03:52:04;29.75;;;19.45;;
78774;SDS011;68119;43.398;3.676;2024-03-23T03:54:31;30.88;;;19.90;;
78774;SDS011;68119;43.398;3.676;2024-03-23T03:57:03;36.78;;;20.95;;
78774;SDS011;68119;43.398;3.676;2024-03-23T03:59:31;35.60;;;21.90;;
78774;SDS011;68119;43.398;3.676;2024-03-23T04:02:03;37.33;;;21.55;;
78774;SDS011;68119;43.398;3.676;2024-03-23T04:04:32;40.33;;;23.45;;
78774;SDS011;68119;43.398;3.676;2024-03-23T04:07:01;37.22;;;22.77;;
78774;SDS011;68119;43.398;3.676;2024-03-23T04:09:28;34.67;;;22.05;;
78774;SDS011;68119;43.398;3.676;2024-03-23T04:12:12;34.00;;;21.63;;
78774;SDS011;68119;43.398;3.676;2024-03-23T04:14:44;40.45;;;23.48;;
78774;SDS011;68119;43.398;3.676;2024-03-23T04:17:10;37.08;;;23.63;;
78774;SDS011;68119;43.398;3.676;2024-03-23T04:19:41;36.33;;;22.02;;
78774;SDS011;68119;43.398;3.676;2024-03-23T04:22:07;36.25;;;22.08;;
78774;SDS011;68119;43.398;3.676;2024-03-23T04:24:37;32.90;;;21.10;;
78774;SDS011;68119;43.398;3.676;2024-03-23T04:32:46;32.67;;;21.08;;
78774;SDS011;68119;43.398;3.676;2024-03-23T04:35:17;32.90;;;21.02;;
78774;SDS011;68119;43.398;3.676;2024-03-23T04:37:46;33.83;;;21.38;;
78774;SDS011;68119;43.398;3.676;2024-03-23T04:40:12;34.38;;;21.80;;
78774;SDS011;68119;43.398;3.676;2024-03-23T04:42:44;29.33;;;19.20;;
78774;SDS011;68119;43.398;3.676;2024-03-23T04:45:10;38.75;;;20.35;;
78774;SDS011;68119;43.398;3.676;2024-03-23T04:47:39;29.67;;;19.13;;
78774;SDS011;68119;43.398;3.676;2024-03-23T04:52:55;30.65;;;19.15;;
78774;SDS011;68119;43.398;3.676;2024-03-23T04:55:40;29.48;;;19.65;;
78774;SDS011;68119;43.398;3.676;2024-03-23T04:58:06;30.67;;;18.63;;
78774;SDS011;68119;43.398;3.676;2024-03-23T05:00:41;31.10;;;19.73;;
78774;SDS011;68119;43.398;3.676;2024-03-23T05:03:12;30.83;;;18.17;;
78774;SDS011;68119;43.398;3.676;2024-03-23T05:08:09;25.40;;;15.65;;
78774;SDS011;68119;43.398;3.676;2024-03-23T05:10:41;23.98;;;15.30;;
78774;SDS011;68119;43.398;3.676;2024-03-23T05:13:13;22.60;;;14.52;;
78774;SDS011;68119;43.398;3.676;2024-03-23T05:15:39;23.52;;;13.60;;
78774;SDS011;68119;43.398;3.676;2024-03-23T05:18:11;21.40;;;13.95;;
78774;SDS011;68119;43.398;3.676;2024-03-23T05:20:43;18.30;;;12.65;;
78774;SDS011;68119;43.398;3.676;2024-03-23T05:23:09;20.70;;;13.15;;
78774;SDS011;68119;43.398;3.676;2024-03-23T05:25:38;22.08;;;13.32;;
78774;SDS011;68119;43.398;3.676;2024-03-23T05:28:07;20.27;;;12.50;;
78774;SDS011;68119;43.398;3.676;2024-03-23T05:30:36;20.95;;;12.88;;
78774;SDS011;68119;43.398;3.676;2024-03-23T05:36:01;17.80;;;11.50;;
78774;SDS011;68119;43.398;3.676;2024-03-23T05:38:31;17.58;;;11.70;;
78774;SDS011;68119;43.398;3.676;2024-03-23T05:40:58;14.05;;;10.65;;
78774;SDS011;68119;43.398;3.676;2024-03-23T05:43:30;19.10;;;11.82;;
78774;SDS011;68119;43.398;3.676;2024-03-23T05:46:03;18.67;;;11.77;;
78774;SDS011;68119;43.398;3.676;2024-03-23T05:48:38;18.15;;;10.65;;
78774;SDS011;68119;43.398;3.676;2024-03-23T05:51:10;17.52;;;10.38;;
78774;SDS011;68119;43.398;3.676;2024-03-23T05:53:39;15.48;;;10.48;;
78774;SDS011;68119;43.398;3.676;2024-03-23T05:56:06;15.27;;;10.25;;
78774;SDS011;68119;43.398;3.676;2024-03-23T05:58:36;14.43;;;9.82;;
78774;SDS011;68119;43.398;3.676;2024-03-23T06:01:02;15.55;;;10.50;;
78774;SDS011;68119;43.398;3.676;2024-03-23T06:03:32;13.57;;;9.52;;
78774;SDS011;68119;43.398;3.676;2024-03-23T06:06:19;16.23;;;9.70;;
78774;SDS011;68119;43.398;3.676;2024-03-23T06:08:48;12.18;;;8.88;;
78774;SDS011;68119;43.398;3.676;2024-03-23T06:11:20;12.77;;;8.90;;
78774;SDS011;68119;43.398;3.676;2024-03-23T06:13:49;13.85;;;8.48;;
78774;SDS011;68119;43.398;3.676;2024-03-23T06:16:18;11.60;;;7.05;;
78774;SDS011;68119;43.398;3.676;2024-03-23T06:18:48;14.20;;;7.22;;
78774;SDS011;68119;43.398;3.676;2024-03-23T06:21:14;11.82;;;7.00;;
78774;SDS011;68119;43.398;3.676;2024-03-23T06:30:07;7.03;;;4.00;;
78774;SDS011;68119;43.398;3.676;2024-03-23T06:35:30;5.60;;;2.97;;
78774;SDS011;68119;43.398;3.676;2024-03-23T06:37:57;5.85;;;2.97;;
78774;SDS011;68119;43.398;3.676;2024-03-23T06:40:30;4.95;;;2.90;;
78774;SDS011;68119;43.398;3.676;2024-03-23T06:42:59;6.72;;;3.20;;
78774;SDS011;68119;43.398;3.676;2024-03-23T06:45:25;7.78;;;3.15;;
78774;SDS011;68119;43.398;3.676;2024-03-23T06:47:54;5.28;;;3.25;;
78774;SDS011;68119;43.398;3.676;2024-03-23T06:53:29;5.53;;;2.83;;
78774;SDS011;68119;43.398;3.676;2024-03-23T06:56:09;5.40;;;2.60;;
78774;SDS011;68119;43.398;3.676;2024-03-23T06:58:43;4.32;;;2.58;;
78774;SDS011;68119;43.398;3.676;2024-03-23T07:01:15;5.45;;;2.70;;
78774;SDS011;68119;43.398;3.676;2024-03-23T07:03:47;5.97;;;2.85;;
78774;SDS011;68119;43.398;3.676;2024-03-23T07:06:24;4.85;;;2.47;;
78774;SDS011;68119;43.398;3.676;2024-03-23T07:08:53;8.70;;;2.60;;
78774;SDS011;68119;43.398;3.676;2024-03-23T07:11:22;6.65;;;2.63;;
78774;SDS011;68119;43.398;3.676;2024-03-23T07:13:54;4.35;;;2.65;;
78774;SDS011;68119;43.398;3.676;2024-03-23T07:16:28;3.13;;;2.30;;
78774;SDS011;68119;43.398;3.676;2024-03-23T07:19:02;4.97;;;2.58;;
78774;SDS011;68119;43.398;3.676;2024-03-23T07:21:31;2.42;;;1.90;;
78774;SDS011;68119;43.398;3.676;2024-03-23T07:24:00;7.70;;;2.60;;
78774;SDS011;68119;43.398;3.676;2024-03-23T07:29:34;4.63;;;2.25;;
78774;SDS011;68119;43.398;3.676;2024-03-23T07:32:04;2.85;;;2.05;;
78774;SDS011;68119;43.398;3.676;2024-03-23T07:34:33;2.85;;;1.92;;
78774;SDS011;68119;43.398;3.676;2024-03-23T07:37:02;5.55;;;1.95;;
78774;SDS011;68119;43.398;3.676;2024-03-23T07:39:29;3.55;;;1.90;;
78774;SDS011;68119;43.398;3.676;2024-03-23T07:42:02;5.30;;;1.90;;
78774;SDS011;68119;43.398;3.676;2024-03-23T07:44:28;2.00;;;1.70;;
78774;SDS011;68119;43.398;3.676;2024-03-23T07:46:58;5.55;;;1.80;;
78774;SDS011;68119;43.398;3.676;2024-03-23T07:49:27;2.70;;;1.70;;
78774;SDS011;68119;43.398;3.676;2024-03-23T07:52:14;8.77;;;1.70;;
78774;SDS011;68119;43.398;3.676;2024-03-23T07:54:45;1.65;;;1.50;;
78774;SDS011;68119;43.398;3.676;2024-03-23T07:57:19;2.63;;;1.88;;
78774;SDS011;68119;43.398;3.676;2024-03-23T07:59:54;9.55;;;1.70;;
78774;SDS011;68119;43.398;3.676;2024-03-23T08:02:27;3.30;;;1.48;;
78774;SDS011;68119;43.398;3.676;2024-03-23T08:04:56;3.95;;;1.83;;
78774;SDS011;68119;43.398;3.676;2024-03-23T08:07:24;3.90;;;1.67;;
78774;SDS011;68119;43.398;3.676;2024-03-23T08:09:53;1.70;;;1.23;;
78774;SDS011;68119;43.398;3.676;2024-03-23T08:12:33;2.03;;;1.48;;
78774;SDS011;68119;43.398;3.676;2024-03-23T08:15:02;3.53;;;1.30;;
78774;SDS011;68119;43.398;3.676;2024-03-23T08:17:34;1.85;;;1.27;;
78774;SDS011;68119;43.398;3.676;2024-03-23T08:20:00;1.20;;;1.10;;
78774;SDS011;68119;43.398;3.676;2024-03-23T08:22:49;4.22;;;0.93;;
78774;SDS011;68119;43.398;3.676;2024-03-23T08:25:18;1.65;;;1.20;;
78774;SDS011;68119;43.398;3.676;2024-03-23T08:27:45;0.95;;;0.85;;
78774;SDS011;68119;43.398;3.676;2024-03-23T08:30:11;2.15;;;0.90;;
78774;SDS011;68119;43.398;3.676;2024-03-23T08:32:43;2.47;;;0.90;;
78774;SDS011;68119;43.398;3.676;2024-03-23T08:35:15;1.40;;;0.68;;
78774;SDS011;68119;43.398;3.676;2024-03-23T08:38:01;1.77;;;0.80;;
78774;SDS011;68119;43.398;3.676;2024-03-23T08:40:32;1.25;;;0.90;;
78774;SDS011;68119;43.398;3.676;2024-03-23T08:42:59;1.58;;;0.85;;
78774;SDS011;68119;43.398;3.676;2024-03-23T08:45:28;1.02;;;0.90;;
78774;SDS011;68119;43.398;3.676;2024-03-23T08:47:54;0.70;;;0.70;;
78774;SDS011;68119;43.398;3.676;2024-03-23T08:50:22;1.63;;;1.30;;
78774;SDS011;68119;43.398;3.676;2024-03-23T08:52:50;3.63;;;1.98;;
78774;SDS011;68119;43.398;3.676;2024-03-23T08:55:16;3.75;;;2.15;;
78774;SDS011;68119;43.398;3.676;2024-03-23T08:58:00;2.63;;;1.80;;
78774;SDS011;68119;43.398;3.676;2024-03-23T09:00:32;2.22;;;1.40;;
78774;SDS011;68119;43.398;3.676;2024-03-23T09:03:03;1.70;;;1.60;;
78774;SDS011;68119;43.398;3.676;2024-03-23T09:05:30;2.10;;;1.80;;
78774;SDS011;68119;43.398;3.676;2024-03-23T09:08:06;2.63;;;2.17;;
78774;SDS011;68119;43.398;3.676;2024-03-23T09:10:42;2.28;;;2.03;;
78774;SDS011;68119;43.398;3.676;2024-03-23T09:13:10;3.83;;;2.50;;
78774;SDS011;68119;43.398;3.676;2024-03-23T09:15:37;4.00;;;2.45;;
78774;SDS011;68119;43.398;3.676;2024-03-23T09:18:07;2.72;;;2.10;;
78774;SDS011;68119;43.398;3.676;2024-03-23T09:20:36;1.40;;;1.37;;
78774;SDS011;68119;43.398;3.676;2024-03-23T09:23:02;2.15;;;1.27;;
78774;SDS011;68119;43.398;3.676;2024-03-23T09:25:31;2.20;;;1.50;;
78774;SDS011;68119;43.398;3.676;2024-03-23T09:27:58;0.60;;;0.60;;
78774;SDS011;68119;43.398;3.676;2024-03-23T09:30:34;1.63;;;0.63;;
78774;SDS011;68119;43.398;3.676;2024-03-23T09:33:10;1.08;;;0.60;;
78774;SDS011;68119;43.398;3.676;2024-03-23T09:35:41;1.85;;;0.85;;
78774;SDS011;68119;43.398;3.676;2024-03-23T09:38:07;0.90;;;0.88;;
78774;SDS011;68119;43.398;3.676;2024-03-23T09:40:34;1.40;;;0.93;;
78774;SDS011;68119;43.398;3.676;2024-03-23T09:43:01;1.00;;;0.80;;
78774;SDS011;68119;43.398;3.676;2024-03-23T09:45:42;0.90;;;0.90;;
78774;SDS011;68119;43.398;3.676;2024-03-23T09:48:15;0.85;;;0.73;;
78774;SDS011;68119;43.398;3.676;2024-03-23T09:50:42;1.08;;;0.98;;
78774;SDS011;68119;43.398;3.676;2024-03-23T09:53:11;1.52;;;0.82;;
78774;SDS011;68119;43.398;3.676;2024-03-23T09:55:38;3.13;;;1.02;;
78774;SDS011;68119;43.398;3.676;2024-03-23T09:58:24;0.43;;;0.40;;
78774;SDS011;68119;43.398;3.676;2024-03-23T10:00:54;1.35;;;0.68;;
78774;SDS011;68119;43.398;3.676;2024-03-23T10:03:22;0.70;;;0.70;;
78774;SDS011;68119;43.398;3.676;2024-03-23T10:06:03;1.10;;;0.63;;
78774;SDS011;68119;43.398;3.676;2024-03-23T10:08:38;1.58;;;0.43;;
78774;SDS011;68119;43.398;3.676;2024-03-23T10:11:13;1.88;;;1.13;;
78774;SDS011;68119;43.398;3.676;2024-03-23T10:13:43;0.57;;;0.57;;
78774;SDS011;68119;43.398;3.676;2024-03-23T10:16:14;0.70;;;0.70;;
78774;SDS011;68119;43.398;3.676;2024-03-23T10:18:52;0.60;;;0.60;;
78774;SDS011;68119;43.398;3.676;2024-03-23T10:21:21;2.33;;;0.60;;
78774;SDS011;68119;43.398;3.676;2024-03-23T10:23:50;0.80;;;0.60;;
78774;SDS011;68119;43.398;3.676;2024-03-23T10:28:56;1.73;;;0.93;;
78774;SDS011;68119;43.398;3.676;2024-03-23T10:31:33;1.35;;;0.80;;
78774;SDS011;68119;43.398;3.676;2024-03-23T10:34:08;1.55;;;0.80;;
78774;SDS011;68119;43.398;3.676;2024-03-23T10:36:43;1.73;;;0.88;;
78774;SDS011;68119;43.398;3.676;2024-03-23T10:39:13;1.77;;;1.00;;
78774;SDS011;68119;43.398;3.676;2024-03-23T10:41:44;1.20;;;1.10;;
78774;SDS011;68119;43.398;3.676;2024-03-23T10:44:19;2.50;;;1.00;;
78774;SDS011;68119;43.398;3.676;2024-03-23T10:46:50;2.00;;;0.93;;
78774;SDS011;68119;43.398;3.676;2024-03-23T10:49:24;1.00;;;0.90;;
78774;SDS011;68119;43.398;3.676;2024-03-23T10:51:56;0.77;;;0.73;;
78774;SDS011;68119;43.398;3.676;2024-03-23T10:54:31;0.70;;;0.70;;
78774;SDS011;68119;43.398;3.676;2024-03-23T10:57:05;2.03;;;0.90;;
78774;SDS011;68119;43.398;3.676;2024-03-23T10:59:36;1.13;;;0.80;;
78774;SDS011;68119;43.398;3.676;2024-03-23T11:02:06;2.20;;;0.73;;
78774;SDS011;68119;43.398;3.676;2024-03-23T11:04:36;1.50;;;0.70;;
78774;SDS011;68119;43.398;3.676;2024-03-23T11:10:00;2.92;;;0.77;;
78774;SDS011;68119;43.398;3.676;2024-03-23T11:12:28;1.25;;;0.90;;
78774;SDS011;68119;43.398;3.676;2024-03-23T11:18:06;1.77;;;0.60;;
78774;SDS011;68119;43.398;3.676;2024-03-23T11:20:40;0.73;;;0.73;;
78774;SDS011;68119;43.398;3.676;2024-03-23T11:23:32;1.75;;;0.98;;
78774;SDS011;68119;43.398;3.676;2024-03-23T11:26:01;12.07;;;1.33;;
78774;SDS011;68119;43.398;3.676;2024-03-23T11:28:34;2.10;;;0.73;;
78774;SDS011;68119;43.398;3.676;2024-03-23T11:31:09;1.45;;;0.93;;
78774;SDS011;68119;43.398;3.676;2024-03-23T11:33:38;2.25;;;0.93;;
78774;SDS011;68119;43.398;3.676;2024-03-23T11:36:18;3.35;;;0.90;;
78774;SDS011;68119;43.398;3.676;2024-03-23T11:38:50;1.92;;;0.80;;
78774;SDS011;68119;43.398;3.676;2024-03-23T11:41:17;2.22;;;1.00;;
78774;SDS011;68119;43.398;3.676;2024-03-23T11:43:43;0.90;;;0.90;;
78774;SDS011;68119;43.398;3.676;2024-03-23T11:46:09;1.63;;;1.02;;
78774;SDS011;68119;43.398;3.676;2024-03-23T11:48:41;2.67;;;0.95;;
78774;SDS011;68119;43.398;3.676;2024-03-23T11:51:10;0.93;;;0.68;;
78774;SDS011;68119;43.398;3.676;2024-03-23T11:53:39;2.70;;;1.25;;
78774;SDS011;68119;43.398;3.676;2024-03-23T11:56:21;1.40;;;0.80;;
78774;SDS011;68119;43.398;3.676;2024-03-23T11:58:47;1.95;;;1.17;;
78774;SDS011;68119;43.398;3.676;2024-03-23T12:01:14;1.90;;;1.20;;
78774;SDS011;68119;43.398;3.676;2024-03-23T12:03:43;2.40;;;1.20;;
78774;SDS011;68119;43.398;3.676;2024-03-23T12:06:10;3.80;;;1.23;;
78774;SDS011;68119;43.398;3.676;2024-03-23T12:08:42;4.53;;;1.23;;
78774;SDS011;68119;43.398;3.676;2024-03-23T12:11:26;3.17;;;1.13;;
78774;SDS011;68119;43.398;3.676;2024-03-23T12:13:54;3.30;;;0.80;;
78774;SDS011;68119;43.398;3.676;2024-03-23T12:16:31;1.67;;;1.00;;
78774;SDS011;68119;43.398;3.676;2024-03-23T12:19:04;3.97;;;1.10;;
78774;SDS011;68119;43.398;3.676;2024-03-23T12:21:31;3.22;;;1.50;;
78774;SDS011;68119;43.398;3.676;2024-03-23T12:24:00;1.45;;;1.02;;
78774;SDS011;68119;43.398;3.676;2024-03-23T12:26:29;4.05;;;1.23;;
78774;SDS011;68119;43.398;3.676;2024-03-23T12:28:55;3.45;;;1.50;;
78774;SDS011;68119;43.398;3.676;2024-03-23T12:33:54;3.53;;;1.20;;
78774;SDS011;68119;43.398;3.676;2024-03-23T12:36:28;2.65;;;0.90;;
78774;SDS011;68119;43.398;3.676;2024-03-23T12:38:55;2.25;;;1.17;;
78774;SDS011;68119;43.398;3.676;2024-03-23T12:41:24;3.03;;;1.40;;
78774;SDS011;68119;43.398;3.676;2024-03-23T12:43:55;3.30;;;1.33;;
78774;SDS011;68119;43.398;3.676;2024-03-23T12:46:24;1.52;;;1.08;;
78774;SDS011;68119;43.398;3.676;2024-03-23T12:48:51;4.10;;;1.23;;
78774;SDS011;68119;43.398;3.676;2024-03-23T12:51:20;2.25;;;1.05;;
78774;SDS011;68119;43.398;3.676;2024-03-23T12:53:46;2.70;;;1.40;;
78774;SDS011;68119;43.398;3.676;2024-03-23T12:56:28;3.30;;;1.27;;
78774;SDS011;68119;43.398;3.676;2024-03-23T12:58:57;4.20;;;1.50;;
78774;SDS011;68119;43.398;3.676;2024-03-23T13:01:27;6.22;;;1.40;;
78774;SDS011;68119;43.398;3.676;2024-03-23T13:03:56;2.30;;;1.20;;
78774;SDS011;68119;43.398;3.676;2024-03-23T13:06:27;2.97;;;1.33;;
78774;SDS011;68119;43.398;3.676;2024-03-23T13:09:02;4.40;;;1.35;;
78774;SDS011;68119;43.398;3.676;2024-03-23T13:11:30;6.72;;;1.40;;
78774;SDS011;68119;43.398;3.676;2024-03-23T13:13:56;3.00;;;1.48;;
78774;SDS011;68119;43.398;3.676;2024-03-23T13:16:25;2.33;;;1.23;;
78774;SDS011;68119;43.398;3.676;2024-03-23T13:18:52;5.70;;;1.90;;
78774;SDS011;68119;43.398;3.676;2024-03-23T13:21:18;4.50;;;1.65;;
78774;SDS011;68119;43.398;3.676;2024-03-23T13:23:47;4.22;;;1.50;;
78774;SDS011;68119;43.398;3.676;2024-03-23T13:26:15;6.07;;;1.95;;
78774;SDS011;68119;43.398;3.676;2024-03-23T13:28:45;4.43;;;1.55;;
78774;SDS011;68119;43.398;3.676;2024-03-23T13:31:14;5.78;;;1.70;;
78774;SDS011;68119;43.398;3.676;2024-03-23T13:33:43;6.47;;;1.73;;
78774;SDS011;68119;43.398;3.676;2024-03-23T13:36:10;5.80;;;1.48;;
78774;SDS011;68119;43.398;3.676;2024-03-23T13:38:39;3.20;;;1.50;;
78774;SDS011;68119;43.398;3.676;2024-03-23T13:41:10;3.50;;;1.52;;
78774;SDS011;68119;43.398;3.676;2024-03-23T13:43:37;4.45;;;1.52;;
78774;SDS011;68119;43.398;3.676;2024-03-23T13:46:06;5.63;;;1.50;;
78774;SDS011;68119;43.398;3.676;2024-03-23T13:48:33;6.60;;;1.50;;
78774;SDS011;68119;43.398;3.676;2024-03-23T13:51:03;5.13;;;1.73;;
78774;SDS011;68119;43.398;3.676;2024-03-23T13:53:32;5.00;;;1.63;;
78774;SDS011;68119;43.398;3.676;2024-03-23T13:56:04;4.90;;;1.40;;
78774;SDS011;68119;43.398;3.676;2024-03-23T13:58:33;3.10;;;1.40;;
78774;SDS011;68119;43.398;3.676;2024-03-23T14:01:00;4.05;;;1.80;;
78774;SDS011;68119;43.398;3.676;2024-03-23T14:03:28;4.43;;;1.80;;
78774;SDS011;68119;43.398;3.676;2024-03-23T14:05:58;4.93;;;1.63;;
78774;SDS011;68119;43.398;3.676;2024-03-23T14:08:29;6.60;;;1.70;;
78774;SDS011;68119;43.398;3.676;2024-03-23T14:11:00;4.97;;;1.88;;
78774;SDS011;68119;43.398;3.676;2024-03-23T14:13:29;6.80;;;1.75;;
78774;SDS011;68119;43.398;3.676;2024-03-23T14:15:58;3.65;;;1.60;;
78774;SDS011;68119;43.398;3.676;2024-03-23T14:18:27;6.50;;;1.70;;
78774;SDS011;68119;43.398;3.676;2024-03-23T14:21:00;2.60;;;1.60;;
78774;SDS011;68119;43.398;3.676;2024-03-23T14:23:27;2.92;;;1.60;;
78774;SDS011;68119;43.398;3.676;2024-03-23T14:28:34;8.07;;;2.08;;
78774;SDS011;68119;43.398;3.676;2024-03-23T14:31:00;3.88;;;1.75;;
78774;SDS011;68119;43.398;3.676;2024-03-23T14:33:26;6.20;;;1.70;;
78774;SDS011;68119;43.398;3.676;2024-03-23T14:35:57;4.53;;;1.90;;
78774;SDS011;68119;43.398;3.676;2024-03-23T14:38:23;6.90;;;2.10;;
78774;SDS011;68119;43.398;3.676;2024-03-23T14:40:53;4.53;;;1.70;;
78774;SDS011;68119;43.398;3.676;2024-03-23T14:43:25;5.72;;;1.80;;
78774;SDS011;68119;43.398;3.676;2024-03-23T14:48:35;7.13;;;1.98;;
78774;SDS011;68119;43.398;3.676;2024-03-23T14:51:04;6.00;;;1.90;;
78774;SDS011;68119;43.398;3.676;2024-03-23T14:53:33;8.90;;;2.30;;
78774;SDS011;68119;43.398;3.676;2024-03-23T14:56:00;7.43;;;2.03;;
78774;SDS011;68119;43.398;3.676;2024-03-23T14:58:27;4.20;;;1.85;;
78774;SDS011;68119;43.398;3.676;2024-03-23T15:01:03;5.38;;;1.80;;
78774;SDS011;68119;43.398;3.676;2024-03-23T15:03:41;9.80;;;1.90;;
78774;SDS011;68119;43.398;3.676;2024-03-23T15:06:10;4.88;;;2.00;;
78774;SDS011;68119;43.398;3.676;2024-03-23T15:08:44;5.45;;;2.00;;
78774;SDS011;68119;43.398;3.676;2024-03-23T15:11:11;8.18;;;2.10;;
78774;SDS011;68119;43.398;3.676;2024-03-23T15:13:43;5.32;;;1.95;;
78774;SDS011;68119;43.398;3.676;2024-03-23T15:16:16;4.15;;;1.88;;
78774;SDS011;68119;43.398;3.676;2024-03-23T15:18:43;5.22;;;1.63;;
78774;SDS011;68119;43.398;3.676;2024-03-23T15:21:12;5.95;;;1.80;;
78774;SDS011;68119;43.398;3.676;2024-03-23T15:23:47;5.15;;;1.90;;
78774;SDS011;68119;43.398;3.676;2024-03-23T15:26:16;7.82;;;1.90;;
78774;SDS011;68119;43.398;3.676;2024-03-23T15:28:42;7.32;;;1.92;;
78774;SDS011;68119;43.398;3.676;2024-03-23T15:31:29;5.03;;;2.00;;
78774;SDS011;68119;43.398;3.676;2024-03-23T15:33:55;6.75;;;2.15;;
78774;SDS011;68119;43.398;3.676;2024-03-23T15:36:23;5.88;;;1.80;;
78774;SDS011;68119;43.398;3.676;2024-03-23T15:38:49;3.90;;;1.83;;
78774;SDS011;68119;43.398;3.676;2024-03-23T15:41:22;5.47;;;1.60;;
78774;SDS011;68119;43.398;3.676;2024-03-23T15:43:49;5.53;;;1.77;;
78774;SDS011;68119;43.398;3.676;2024-03-23T15:46:24;5.45;;;1.98;;
78774;SDS011;68119;43.398;3.676;2024-03-23T15:48:52;5.15;;;1.88;;
78774;SDS011;68119;43.398;3.676;2024-03-23T15:51:21;12.80;;;2.00;;
78774;SDS011;68119;43.398;3.676;2024-03-23T15:53:47;4.63;;;1.85;;
78774;SDS011;68119;43.398;3.676;2024-03-23T15:56:17;7.53;;;1.95;;
78774;SDS011;68119;43.398;3.676;2024-03-23T15:58:43;5.78;;;1.90;;
78774;SDS011;68119;43.398;3.676;2024-03-23T16:01:10;5.30;;;2.08;;
78774;SDS011;68119;43.398;3.676;2024-03-23T16:03:39;4.25;;;1.92;;
78774;SDS011;68119;43.398;3.676;2024-03-23T16:06:07;10.82;;;2.30;;
78774;SDS011;68119;43.398;3.676;2024-03-23T16:08:36;6.97;;;1.98;;
78774;SDS011;68119;43.398;3.676;2024-03-23T16:11:06;8.35;;;2.08;;
78774;SDS011;68119;43.398;3.676;2024-03-23T16:13:35;4.73;;;2.00;;
78774;SDS011;68119;43.398;3.676;2024-03-23T16:16:02;8.23;;;2.28;;
78774;SDS011;68119;43.398;3.676;2024-03-23T16:18:31;6.80;;;2.03;;
78774;SDS011;68119;43.398;3.676;2024-03-23T16:21:00;7.32;;;2.10;;
78774;SDS011;68119;43.398;3.676;2024-03-23T16:23:29;6.82;;;1.98;;
78774;SDS011;68119;43.398;3.676;2024-03-23T16:26:01;6.57;;;1.80;;
78774;SDS011;68119;43.398;3.676;2024-03-23T16:31:09;4.68;;;1.70;;
78774;SDS011;68119;43.398;3.676;2024-03-23T16:33:36;3.13;;;1.73;;
78774;SDS011;68119;43.398;3.676;2024-03-23T16:36:07;6.53;;;2.00;;
78774;SDS011;68119;43.398;3.676;2024-03-23T16:38:43;5.35;;;1.77;;
78774;SDS011;68119;43.398;3.676;2024-03-23T16:41:12;4.30;;;1.65;;
78774;SDS011;68119;43.398;3.676;2024-03-23T16:43:41;6.60;;;1.88;;
78774;SDS011;68119;43.398;3.676;2024-03-23T16:46:08;6.32;;;1.88;;
78774;SDS011;68119;43.398;3.676;2024-03-23T16:48:41;8.45;;;2.38;;
78774;SDS011;68119;43.398;3.676;2024-03-23T16:51:11;5.20;;;1.85;;
78774;SDS011;68119;43.398;3.676;2024-03-23T16:53:40;3.90;;;1.90;;